Terminal Aerodrome Forecast
Issued by NWS

Home | Current Version | Previous Version | Text Only | Print | Product List | Glossary On
Versions: 1 2 3 4 5 6 7 8 9 10 11 12 13 14 15 16 17 18 19 20 21 22 23 24 25 26 27 28 29 30 31 32 33 34 35 36 37 38
000
FTUS43 KDTX 231130
TAFPTK
TAF
KPTK 231130Z 2312/2412 23014KT P6SM BKN012 OVC024
     FM231400 29010KT P6SM SCT014
     FM231600 32006KT P6SM SCT028
     FM232200 01007KT P6SM SCT025 BKN150
     FM240300 04008KT P6SM BKN012 OVC040
     FM240700 05009KT 3SM -SHRA BR BKN006 OVC018=

USA.gov is the U.S. government's official web portal to all federal, state and local government web resources and services.